sensor_id;sensor_type;location;lat;lon;timestamp;pressure;altitude;pressure_sealevel;temperature;humidity
66486;BME280;53303;47.476;8.084;2024-02-14T00:01:16;95792.78;;;19.45;43.23
66486;BME280;53303;47.476;8.084;2024-02-14T00:03:44;95719.03;;;18.93;43.15
66486;BME280;53303;47.476;8.084;2024-02-14T00:06:09;95780.16;;;19.33;43.16
66486;BME280;53303;47.476;8.084;2024-02-14T00:08:39;95777.91;;;19.37;43.07
66486;BME280;53303;47.476;8.084;2024-02-14T00:11:05;95783.66;;;19.33;43.09
66486;BME280;53303;47.476;8.084;2024-02-14T00:13:30;95802.34;;;19.44;43.15
66486;BME280;53303;47.476;8.084;2024-02-14T00:16:00;95807.13;;;19.44;43.23
66486;BME280;53303;47.476;8.084;2024-02-14T00:18:25;95798.31;;;19.39;43.34
66486;BME280;53303;47.476;8.084;2024-02-14T00:20:51;95806.88;;;19.42;43.36
66486;BME280;53303;47.476;8.084;2024-02-14T00:23:16;95810.38;;;19.42;43.29
66486;BME280;53303;47.476;8.084;2024-02-14T00:25:42;95809.63;;;19.42;43.19
66486;BME280;53303;47.476;8.084;2024-02-14T00:28:07;95789.91;;;19.28;43.33
66486;BME280;53303;47.476;8.084;2024-02-14T00:30:32;95817.16;;;19.41;43.24
66486;BME280;53303;47.476;8.084;2024-02-14T00:32:58;95801.00;;;19.34;43.45
66486;BME280;53303;47.476;8.084;2024-02-14T00:35:24;95809.38;;;19.39;43.71
66486;BME280;53303;47.476;8.084;2024-02-14T00:37:51;95803.53;;;19.37;43.21
66486;BME280;53303;47.476;8.084;2024-02-14T00:40:17;95797.22;;;19.31;43.21
66486;BME280;53303;47.476;8.084;2024-02-14T00:42:45;95811.34;;;19.39;43.40
66486;BME280;53303;47.476;8.084;2024-02-14T00:45:11;95813.56;;;19.29;43.50
66486;BME280;53303;47.476;8.084;2024-02-14T00:47:37;95801.47;;;19.27;43.41
66486;BME280;53303;47.476;8.084;2024-02-14T00:50:04;95803.47;;;19.26;43.47
66486;BME280;53303;47.476;8.084;2024-02-14T00:52:29;95809.53;;;19.30;43.32
66486;BME280;53303;47.476;8.084;2024-02-14T00:54:55;95808.00;;;19.24;43.41
66486;BME280;53303;47.476;8.084;2024-02-14T00:57:21;95822.16;;;19.37;43.38
66486;BME280;53303;47.476;8.084;2024-02-14T00:59:53;95819.41;;;19.37;43.41
66486;BME280;53303;47.476;8.084;2024-02-14T01:02:23;95767.31;;;18.98;43.10
66486;BME280;53303;47.476;8.084;2024-02-14T01:04:49;95819.63;;;19.33;43.32
66486;BME280;53303;47.476;8.084;2024-02-14T01:07:17;95825.66;;;19.32;43.44
66486;BME280;53303;47.476;8.084;2024-02-14T01:09:42;95799.94;;;19.20;43.44
66486;BME280;53303;47.476;8.084;2024-02-14T01:12:07;95814.31;;;19.30;43.76
66486;BME280;53303;47.476;8.084;2024-02-14T01:14:33;95799.13;;;19.14;43.33
66486;BME280;53303;47.476;8.084;2024-02-14T01:17:01;95809.25;;;19.23;43.41
66486;BME280;53303;47.476;8.084;2024-02-14T01:19:28;95795.88;;;19.15;43.51
66486;BME280;53303;47.476;8.084;2024-02-14T01:21:56;95820.38;;;19.34;43.35
66486;BME280;53303;47.476;8.084;2024-02-14T01:24:22;95821.66;;;19.33;43.36
66486;BME280;53303;47.476;8.084;2024-02-14T01:26:48;95806.97;;;19.21;43.33
66486;BME280;53303;47.476;8.084;2024-02-14T01:29:16;95814.31;;;19.30;43.33
66486;BME280;53303;47.476;8.084;2024-02-14T01:31:42;95801.75;;;19.29;43.65
66486;BME280;53303;47.476;8.084;2024-02-14T01:34:14;95808.03;;;19.29;43.38
66486;BME280;53303;47.476;8.084;2024-02-14T01:36:40;95808.03;;;19.29;43.42
66486;BME280;53303;47.476;8.084;2024-02-14T01:39:06;95811.81;;;19.32;43.42
66486;BME280;53303;47.476;8.084;2024-02-14T01:41:35;95808.31;;;19.31;43.41
66486;BME280;53303;47.476;8.084;2024-02-14T01:44:01;95806.50;;;19.28;43.54
66486;BME280;53303;47.476;8.084;2024-02-14T01:46:29;95781.50;;;19.11;43.47
66486;BME280;53303;47.476;8.084;2024-02-14T01:48:57;95803.22;;;19.24;43.51
66486;BME280;53303;47.476;8.084;2024-02-14T01:51:24;95802.50;;;19.29;43.49
66486;BME280;53303;47.476;8.084;2024-02-14T01:53:51;95800.50;;;19.30;43.55
66486;BME280;53303;47.476;8.084;2024-02-14T01:56:20;95786.28;;;19.11;43.61
66486;BME280;53303;47.476;8.084;2024-02-14T01:58:48;95791.38;;;19.18;43.51
66486;BME280;53303;47.476;8.084;2024-02-14T02:01:18;95720.09;;;18.70;43.48
66486;BME280;53303;47.476;8.084;2024-02-14T02:03:48;95740.50;;;18.78;43.85
66486;BME280;53303;47.476;8.084;2024-02-14T02:06:16;95811.28;;;19.28;43.62
66486;BME280;53303;47.476;8.084;2024-02-14T02:08:45;95743.28;;;18.78;43.63
66486;BME280;53303;47.476;8.084;2024-02-14T02:11:19;95804.19;;;19.21;43.47
66486;BME280;53303;47.476;8.084;2024-02-14T02:13:47;95775.13;;;18.99;43.55
66486;BME280;53303;47.476;8.084;2024-02-14T02:16:12;95807.53;;;19.25;43.51
66486;BME280;53303;47.476;8.084;2024-02-14T02:18:40;95777.44;;;19.07;43.74
66486;BME280;53303;47.476;8.084;2024-02-14T02:21:08;95783.25;;;19.09;43.61
66486;BME280;53303;47.476;8.084;2024-02-14T02:23:34;95802.00;;;19.25;43.69
66486;BME280;53303;47.476;8.084;2024-02-14T02:25:59;95772.19;;;19.09;43.85
66486;BME280;53303;47.476;8.084;2024-02-14T02:28:27;95779.97;;;19.10;43.60
66486;BME280;53303;47.476;8.084;2024-02-14T02:30:53;95796.94;;;19.24;43.58
66486;BME280;53303;47.476;8.084;2024-02-14T02:33:21;95804.47;;;19.23;43.60
66486;BME280;53303;47.476;8.084;2024-02-14T02:35:51;95805.25;;;19.24;43.61
66486;BME280;53303;47.476;8.084;2024-02-14T02:38:17;95800.47;;;19.24;43.66
66486;BME280;53303;47.476;8.084;2024-02-14T02:40:43;95786.28;;;19.11;43.60
66486;BME280;53303;47.476;8.084;2024-02-14T02:43:11;95791.56;;;19.14;43.59
66486;BME280;53303;47.476;8.084;2024-02-14T02:45:39;95796.13;;;19.17;43.80
66486;BME280;53303;47.476;8.084;2024-02-14T02:48:04;95802.97;;;19.22;43.69
66486;BME280;53303;47.476;8.084;2024-02-14T02:50:30;95770.13;;;19.03;43.68
66486;BME280;53303;47.476;8.084;2024-02-14T02:52:55;95778.97;;;19.08;43.58
66486;BME280;53303;47.476;8.084;2024-02-14T02:55:22;95796.69;;;19.21;43.74
66486;BME280;53303;47.476;8.084;2024-02-14T02:57:55;95797.16;;;19.20;43.74
66486;BME280;53303;47.476;8.084;2024-02-14T03:00:23;95795.38;;;19.17;43.75
66486;BME280;53303;47.476;8.084;2024-02-14T03:02:49;95796.38;;;19.19;43.63
66486;BME280;53303;47.476;8.084;2024-02-14T03:05:14;95759.00;;;18.92;43.72
66486;BME280;53303;47.476;8.084;2024-02-14T03:07:48;95794.41;;;19.20;43.54
66486;BME280;53303;47.476;8.084;2024-02-14T03:10:18;95797.41;;;19.16;43.75
66486;BME280;53303;47.476;8.084;2024-02-14T03:12:47;95774.44;;;19.10;43.65
66486;BME280;53303;47.476;8.084;2024-02-14T03:15:13;95780.72;;;19.11;43.65
66486;BME280;53303;47.476;8.084;2024-02-14T03:17:41;95788.59;;;19.18;43.69
66486;BME280;53303;47.476;8.084;2024-02-14T03:20:11;95770.41;;;19.06;43.61
66486;BME280;53303;47.476;8.084;2024-02-14T03:22:45;95784.31;;;19.17;43.77
66486;BME280;53303;47.476;8.084;2024-02-14T03:25:17;95782.25;;;19.12;43.73
66486;BME280;53303;47.476;8.084;2024-02-14T03:27:43;95771.91;;;19.07;43.74
66486;BME280;53303;47.476;8.084;2024-02-14T03:30:12;95786.56;;;19.13;43.65
66486;BME280;53303;47.476;8.084;2024-02-14T03:32:38;95800.91;;;19.17;43.64
66486;BME280;53303;47.476;8.084;2024-02-14T03:35:06;95793.59;;;19.14;43.72
66486;BME280;53303;47.476;8.084;2024-02-14T03:37:32;95770.13;;;19.03;43.81
66486;BME280;53303;47.476;8.084;2024-02-14T03:39:57;95775.16;;;19.05;43.85
66486;BME280;53303;47.476;8.084;2024-02-14T03:42:25;95781.97;;;19.04;43.79
66486;BME280;53303;47.476;8.084;2024-02-14T03:44:51;95802.63;;;19.14;43.76
66486;BME280;53303;47.476;8.084;2024-02-14T03:47:19;95748.03;;;18.72;43.76
66486;BME280;53303;47.476;8.084;2024-02-14T03:49:46;95790.53;;;19.06;43.87
66486;BME280;53303;47.476;8.084;2024-02-14T03:52:17;95808.41;;;19.11;43.78
66486;BME280;53303;47.476;8.084;2024-02-14T03:54:42;95796.06;;;19.06;43.74
66486;BME280;53303;47.476;8.084;2024-02-14T03:57:07;95795.09;;;19.09;43.81
66486;BME280;53303;47.476;8.084;2024-02-14T03:59:36;95792.03;;;19.07;43.97
66486;BME280;53303;47.476;8.084;2024-02-14T04:02:04;95776.66;;;19.00;43.90
66486;BME280;53303;47.476;8.084;2024-02-14T04:04:29;95783.78;;;19.13;43.84
66486;BME280;53303;47.476;8.084;2024-02-14T04:06:54;95788.53;;;19.12;43.87
66486;BME280;53303;47.476;8.084;2024-02-14T04:09:23;95771.34;;;18.97;43.88
66486;BME280;53303;47.476;8.084;2024-02-14T04:11:49;95794.06;;;19.12;43.91
66486;BME280;53303;47.476;8.084;2024-02-14T04:14:15;95794.28;;;19.03;43.92
66486;BME280;53303;47.476;8.084;2024-02-14T04:16:43;95787.16;;;18.96;43.87
66486;BME280;53303;47.476;8.084;2024-02-14T04:19:11;95803.38;;;19.09;43.88
66486;BME280;53303;47.476;8.084;2024-02-14T04:21:40;95808.13;;;19.09;43.78
66486;BME280;53303;47.476;8.084;2024-02-14T04:24:06;95813.94;;;19.11;43.81
66486;BME280;53303;47.476;8.084;2024-02-14T04:26:31;95802.78;;;18.99;43.84
66486;BME280;53303;47.476;8.084;2024-02-14T04:28:59;95828.53;;;19.11;43.92
66486;BME280;53303;47.476;8.084;2024-02-14T04:31:25;95811.56;;;18.98;44.00
66486;BME280;53303;47.476;8.084;2024-02-14T04:33:52;95821.16;;;19.02;44.00
66486;BME280;53303;47.476;8.084;2024-02-14T04:36:20;95834.81;;;19.12;43.86
66486;BME280;53303;47.476;8.084;2024-02-14T04:38:50;95826.25;;;19.10;43.98
66486;BME280;53303;47.476;8.084;2024-02-14T04:41:17;95830.53;;;19.11;43.87
66486;BME280;53303;47.476;8.084;2024-02-14T04:43:42;95831.78;;;19.10;43.89
66486;BME280;53303;47.476;8.084;2024-02-14T04:46:10;95812.56;;;18.95;43.88
66486;BME280;53303;47.476;8.084;2024-02-14T04:48:35;95817.88;;;18.98;43.91
66486;BME280;53303;47.476;8.084;2024-02-14T04:51:02;95810.06;;;18.97;43.94
66486;BME280;53303;47.476;8.084;2024-02-14T04:53:30;95833.81;;;19.09;44.04
66486;BME280;53303;47.476;8.084;2024-02-14T04:55:58;95841.31;;;19.09;43.92
66486;BME280;53303;47.476;8.084;2024-02-14T04:58:24;95841.31;;;19.09;44.09
66486;BME280;53303;47.476;8.084;2024-02-14T05:00:52;95810.25;;;18.88;43.92
66486;BME280;53303;47.476;8.084;2024-02-14T05:03:18;95839.56;;;19.06;43.83
66486;BME280;53303;47.476;8.084;2024-02-14T05:05:43;95851.91;;;19.10;43.63
66486;BME280;53303;47.476;8.084;2024-02-14T05:08:09;95842.84;;;19.10;43.45
66486;BME280;53303;47.476;8.084;2024-02-14T05:10:35;95823.13;;;18.96;42.64
66486;BME280;53303;47.476;8.084;2024-02-14T05:13:01;95826.44;;;19.00;42.26
66486;BME280;53303;47.476;8.084;2024-02-14T05:15:26;95814.03;;;18.90;41.81
66486;BME280;53303;47.476;8.084;2024-02-14T05:17:52;95822.38;;;18.96;41.90
66486;BME280;53303;47.476;8.084;2024-02-14T05:20:18;95820.81;;;18.89;41.92
66486;BME280;53303;47.476;8.084;2024-02-14T05:22:45;95803.56;;;18.74;42.11
66486;BME280;53303;47.476;8.084;2024-02-14T05:25:11;95848.84;;;19.02;42.19
66486;BME280;53303;47.476;8.084;2024-02-14T05:27:38;95781.19;;;18.45;42.16
66486;BME280;53303;47.476;8.084;2024-02-14T05:30:12;95828.78;;;18.81;42.34
66486;BME280;53303;47.476;8.084;2024-02-14T05:32:39;95736.72;;;18.17;42.32
66486;BME280;53303;47.476;8.084;2024-02-14T05:35:07;95729.13;;;18.12;42.37
66486;BME280;53303;47.476;8.084;2024-02-14T05:37:35;95863.63;;;18.99;42.57
66486;BME280;53303;47.476;8.084;2024-02-14T05:40:03;95766.78;;;18.36;42.64
66486;BME280;53303;47.476;8.084;2024-02-14T05:42:36;95850.25;;;18.92;42.64
66486;BME280;53303;47.476;8.084;2024-02-14T05:45:03;95830.84;;;18.87;42.70
66486;BME280;53303;47.476;8.084;2024-02-14T05:47:38;95792.63;;;18.59;42.87
66486;BME280;53303;47.476;8.084;2024-02-14T05:50:07;95791.38;;;18.60;42.65
66486;BME280;53303;47.476;8.084;2024-02-14T05:52:34;95813.63;;;18.77;42.84
66486;BME280;53303;47.476;8.084;2024-02-14T05:54:59;95840.22;;;18.95;42.81
66486;BME280;53303;47.476;8.084;2024-02-14T05:57:24;95845.97;;;18.91;42.90
66486;BME280;53303;47.476;8.084;2024-02-14T05:59:50;95842.81;;;18.78;42.90
66486;BME280;53303;47.476;8.084;2024-02-14T06:02:15;95820.38;;;18.70;42.92
66486;BME280;53303;47.476;8.084;2024-02-14T06:04:41;95838.59;;;18.82;42.99
66486;BME280;53303;47.476;8.084;2024-02-14T06:07:08;95849.66;;;18.82;43.05
66486;BME280;53303;47.476;8.084;2024-02-14T06:09:35;95857.44;;;18.84;43.18
66486;BME280;53303;47.476;8.084;2024-02-14T06:12:01;95844.56;;;18.75;43.28
66486;BME280;53303;47.476;8.084;2024-02-14T06:14:29;95866.09;;;18.92;43.12
66486;BME280;53303;47.476;8.084;2024-02-14T06:16:56;95856.25;;;18.91;43.26
66486;BME280;53303;47.476;8.084;2024-02-14T06:19:22;95842.38;;;18.85;43.15
66486;BME280;53303;47.476;8.084;2024-02-14T06:21:48;95832.50;;;18.78;43.12
66486;BME280;53303;47.476;8.084;2024-02-14T06:24:13;95840.84;;;18.84;43.34
66486;BME280;53303;47.476;8.084;2024-02-14T06:26:41;95850.69;;;18.85;43.30
66486;BME280;53303;47.476;8.084;2024-02-14T06:29:09;95844.59;;;18.81;43.19
66486;BME280;53303;47.476;8.084;2024-02-14T06:31:40;95825.84;;;18.64;43.38
66486;BME280;53303;47.476;8.084;2024-02-14T06:34:07;95858.28;;;18.90;43.45
66486;BME280;53303;47.476;8.084;2024-02-14T06:36:36;95833.06;;;18.56;43.08
66486;BME280;53303;47.476;8.084;2024-02-14T06:39:04;95858.75;;;18.89;43.37
66486;BME280;53303;47.476;8.084;2024-02-14T06:41:34;95863.53;;;18.88;43.59
66486;BME280;53303;47.476;8.084;2024-02-14T06:43:59;95844.56;;;18.75;43.52
66486;BME280;53303;47.476;8.084;2024-02-14T06:46:26;95852.44;;;18.82;43.54
66486;BME280;53303;47.476;8.084;2024-02-14T06:48:54;95853.84;;;18.78;43.64
66486;BME280;53303;47.476;8.084;2024-02-14T06:51:21;95847.09;;;18.79;43.88
66486;BME280;53303;47.476;8.084;2024-02-14T06:53:51;95859.47;;;18.83;43.51
66486;BME280;53303;47.476;8.084;2024-02-14T06:56:17;95871.28;;;18.84;43.74
66486;BME280;53303;47.476;8.084;2024-02-14T06:58:42;95873.06;;;18.87;43.34
66486;BME280;53303;47.476;8.084;2024-02-14T07:01:11;95866.72;;;18.81;43.67
66486;BME280;53303;47.476;8.084;2024-02-14T07:03:38;95873.28;;;18.83;43.83
66486;BME280;53303;47.476;8.084;2024-02-14T07:06:06;95875.56;;;18.85;43.57
66486;BME280;53303;47.476;8.084;2024-02-14T07:08:31;95854.06;;;18.74;43.72
66486;BME280;53303;47.476;8.084;2024-02-14T07:10:59;95866.03;;;18.86;43.76
66486;BME280;53303;47.476;8.084;2024-02-14T07:13:24;95850.28;;;18.72;43.80
66486;BME280;53303;47.476;8.084;2024-02-14T07:15:50;95886.63;;;18.85;43.78
66486;BME280;53303;47.476;8.084;2024-02-14T07:18:15;95865.63;;;18.73;43.79
66486;BME280;53303;47.476;8.084;2024-02-14T07:20:41;95864.16;;;18.77;43.83
66486;BME280;53303;47.476;8.084;2024-02-14T07:23:06;95843.66;;;18.63;43.93
66486;BME280;53303;47.476;8.084;2024-02-14T07:25:31;95855.03;;;18.71;44.15
66486;BME280;53303;47.476;8.084;2024-02-14T07:27:57;95851.25;;;18.69;43.82
66486;BME280;53303;47.476;8.084;2024-02-14T07:30:22;95870.53;;;18.83;43.86
66486;BME280;53303;47.476;8.084;2024-02-14T07:32:48;95859.88;;;18.76;43.84
66486;BME280;53303;47.476;8.084;2024-02-14T07:35:14;95869.44;;;18.75;43.92
66486;BME280;53303;47.476;8.084;2024-02-14T07:37:42;95892.16;;;18.85;43.73
66486;BME280;53303;47.476;8.084;2024-02-14T07:40:10;95857.22;;;18.61;44.01
66486;BME280;53303;47.476;8.084;2024-02-14T07:42:38;95896.16;;;18.84;43.97
66486;BME280;53303;47.476;8.084;2024-02-14T07:45:03;95893.59;;;18.80;43.97
66486;BME280;53303;47.476;8.084;2024-02-14T07:47:29;95882.19;;;18.73;43.91
66486;BME280;53303;47.476;8.084;2024-02-14T07:49:54;95891.75;;;18.72;43.92
66486;BME280;53303;47.476;8.084;2024-02-14T07:52:20;95878.16;;;18.68;43.97
66486;BME280;53303;47.476;8.084;2024-02-14T07:54:46;95891.81;;;18.77;44.01
66486;BME280;53303;47.476;8.084;2024-02-14T07:57:12;95887.25;;;18.74;43.98
66486;BME280;53303;47.476;8.084;2024-02-14T07:59:39;95870.34;;;18.67;43.95
66486;BME280;53303;47.476;8.084;2024-02-14T08:02:07;95893.41;;;18.84;43.97
66486;BME280;53303;47.476;8.084;2024-02-14T08:04:33;95866.47;;;18.58;44.06
66486;BME280;53303;47.476;8.084;2024-02-14T08:07:05;95885.34;;;18.60;44.07
66486;BME280;53303;47.476;8.084;2024-02-14T08:09:36;95750.91;;;17.63;43.96
66486;BME280;53303;47.476;8.084;2024-02-14T08:12:04;95887.19;;;18.69;44.10
66486;BME280;53303;47.476;8.084;2024-02-14T08:14:29;95898.09;;;18.78;44.09
66486;BME280;53303;47.476;8.084;2024-02-14T08:16:55;95899.44;;;18.82;44.03
66486;BME280;53303;47.476;8.084;2024-02-14T08:19:20;95884.44;;;18.69;44.08
66486;BME280;53303;47.476;8.084;2024-02-14T08:21:48;95885.19;;;18.69;44.11
66486;BME280;53303;47.476;8.084;2024-02-14T08:24:16;95899.44;;;18.82;44.01
66486;BME280;53303;47.476;8.084;2024-02-14T08:26:45;95899.44;;;18.82;44.04
66486;BME280;53303;47.476;8.084;2024-02-14T08:29:13;95891.88;;;18.83;44.25
66486;BME280;53303;47.476;8.084;2024-02-14T08:31:41;95873.16;;;18.72;44.09
66486;BME280;53303;47.476;8.084;2024-02-14T08:34:09;95875.44;;;18.74;44.05
66486;BME280;53303;47.476;8.084;2024-02-14T08:36:35;95900.09;;;18.77;43.96
66486;BME280;53303;47.476;8.084;2024-02-14T08:39:07;95894.66;;;18.83;44.21
66486;BME280;53303;47.476;8.084;2024-02-14T08:41:32;95892.78;;;18.74;44.08
66486;BME280;53303;47.476;8.084;2024-02-14T08:43:58;95885.44;;;18.71;44.22
66486;BME280;53303;47.476;8.084;2024-02-14T08:46:23;95922.31;;;18.83;44.36
66486;BME280;53303;47.476;8.084;2024-02-14T08:48:50;95920.47;;;18.80;44.16
66486;BME280;53303;47.476;8.084;2024-02-14T08:51:19;95911.66;;;18.76;44.29
66486;BME280;53303;47.476;8.084;2024-02-14T08:53:47;95909.84;;;18.73;44.18
66486;BME280;53303;47.476;8.084;2024-02-14T08:56:16;95920.97;;;18.78;44.11
66486;BME280;53303;47.476;8.084;2024-02-14T08:58:43;95922.31;;;18.83;44.33
66486;BME280;53303;47.476;8.084;2024-02-14T09:01:11;95924.31;;;18.82;44.20
66486;BME280;53303;47.476;8.084;2024-02-14T09:03:38;95910.81;;;18.70;44.39
66486;BME280;53303;47.476;8.084;2024-02-14T09:06:03;95915.09;;;18.71;44.27
66486;BME280;53303;47.476;8.084;2024-02-14T09:08:31;95922.97;;;18.78;44.22
66486;BME280;53303;47.476;8.084;2024-02-14T09:10:57;95929.53;;;18.80;44.21
66486;BME280;53303;47.476;8.084;2024-02-14T09:13:24;95896.88;;;18.58;44.23
66486;BME280;53303;47.476;8.084;2024-02-14T09:15:55;95926.00;;;18.80;44.25
66486;BME280;53303;47.476;8.084;2024-02-14T09:18:23;95928.31;;;18.81;44.27
66486;BME280;53303;47.476;8.084;2024-02-14T09:20:51;95910.31;;;18.71;44.23
66486;BME280;53303;47.476;8.084;2024-02-14T09:23:18;95915.09;;;18.71;44.26
66486;BME280;53303;47.476;8.084;2024-02-14T09:25:47;95928.31;;;18.81;44.24
66486;BME280;53303;47.476;8.084;2024-02-14T09:28:15;95920.41;;;18.74;44.18
66486;BME280;53303;47.476;8.084;2024-02-14T09:30:43;95941.44;;;18.87;44.15
66486;BME280;53303;47.476;8.084;2024-02-14T09:33:08;95919.25;;;18.81;44.22
66486;BME280;53303;47.476;8.084;2024-02-14T09:35:37;95918.28;;;18.84;44.28
66486;BME280;53303;47.476;8.084;2024-02-14T09:38:04;95877.25;;;18.56;44.37
66486;BME280;53303;47.476;8.084;2024-02-14T09:40:30;95913.94;;;18.77;44.25
66486;BME280;53303;47.476;8.084;2024-02-14T09:42:56;95914.69;;;18.78;44.43
66486;BME280;53303;47.476;8.084;2024-02-14T09:45:27;95916.69;;;18.77;44.29
66486;BME280;53303;47.476;8.084;2024-02-14T09:47:53;95933.91;;;18.87;44.11
66486;BME280;53303;47.476;8.084;2024-02-14T09:50:20;95911.38;;;18.74;44.34
66486;BME280;53303;47.476;8.084;2024-02-14T09:52:49;95892.09;;;18.59;44.20
66486;BME280;53303;47.476;8.084;2024-02-14T09:55:18;95902.19;;;18.62;44.20
66486;BME280;53303;47.476;8.084;2024-02-14T09:57:46;95916.63;;;18.72;44.40
66486;BME280;53303;47.476;8.084;2024-02-14T10:00:16;95921.75;;;18.79;44.25
66486;BME280;53303;47.476;8.084;2024-02-14T10:02:44;95886.78;;;18.55;44.32
66486;BME280;53303;47.476;8.084;2024-02-14T10:05:10;95930.72;;;18.74;44.19
66486;BME280;53303;47.476;8.084;2024-02-14T10:07:44;95901.44;;;18.61;44.17
66486;BME280;53303;47.476;8.084;2024-02-14T10:10:10;95957.56;;;18.88;44.42
66486;BME280;53303;47.476;8.084;2024-02-14T10:12:36;95950.75;;;18.89;44.25
66486;BME280;53303;47.476;8.084;2024-02-14T10:15:01;95905.44;;;18.60;44.50
66486;BME280;53303;47.476;8.084;2024-02-14T10:17:27;95939.69;;;18.89;44.38
66486;BME280;53303;47.476;8.084;2024-02-14T10:20:00;95913.25;;;18.62;44.22
66486;BME280;53303;47.476;8.084;2024-02-14T10:22:37;95952.03;;;18.88;44.34
66486;BME280;53303;47.476;8.084;2024-02-14T10:25:06;95946.97;;;18.87;44.37
66486;BME280;53303;47.476;8.084;2024-02-14T10:27:38;95949.66;;;18.81;44.42
66486;BME280;53303;47.476;8.084;2024-02-14T10:30:08;95963.84;;;18.89;44.50
66486;BME280;53303;47.476;8.084;2024-02-14T10:32:37;95957.06;;;18.90;44.37
66486;BME280;53303;47.476;8.084;2024-02-14T10:35:07;95953.53;;;18.89;44.26
66486;BME280;53303;47.476;8.084;2024-02-14T10:37:37;95932.00;;;18.78;44.25
66486;BME280;53303;47.476;8.084;2024-02-14T10:40:03;95962.13;;;18.91;44.24
66486;BME280;53303;47.476;8.084;2024-02-14T10:42:30;95953.25;;;18.87;44.45
66486;BME280;53303;47.476;8.084;2024-02-14T10:44:56;95956.81;;;18.88;44.36
66486;BME280;53303;47.476;8.084;2024-02-14T10:47:24;95950.50;;;18.87;44.31
66486;BME280;53303;47.476;8.084;2024-02-14T10:49:50;95927.25;;;18.79;44.16
66486;BME280;53303;47.476;8.084;2024-02-14T10:52:20;95947.72;;;18.87;44.10
66486;BME280;53303;47.476;8.084;2024-02-14T10:54:59;95952.56;;;18.92;44.31
66486;BME280;53303;47.476;8.084;2024-02-14T10:57:29;95951.31;;;18.93;44.40
66486;BME280;53303;47.476;8.084;2024-02-14T10:59:56;95944.75;;;18.91;44.33
66486;BME280;53303;47.476;8.084;2024-02-14T11:02:25;95959.88;;;18.95;44.42
66486;BME280;53303;47.476;8.084;2024-02-14T11:04:56;95950.28;;;18.91;44.51
66486;BME280;53303;47.476;8.084;2024-02-14T11:07:21;95949.56;;;18.96;44.53
66486;BME280;53303;47.476;8.084;2024-02-14T11:10:06;95938.41;;;18.85;44.33
66486;BME280;53303;47.476;8.084;2024-02-14T11:12:39;95955.09;;;18.96;44.42
66486;BME280;53303;47.476;8.084;2024-02-14T11:17:45;95910.59;;;18.73;44.77
66486;BME280;53303;47.476;8.084;2024-02-14T11:20:15;95945.09;;;18.98;44.42
66486;BME280;53303;47.476;8.084;2024-02-14T11:23:05;95950.06;;;18.94;44.45
66486;BME280;53303;47.476;8.084;2024-02-14T11:25:38;95939.69;;;18.89;44.43
66486;BME280;53303;47.476;8.084;2024-02-14T11:28:13;95938.19;;;18.88;44.42
66486;BME280;53303;47.476;8.084;2024-02-14T11:30:40;95933.63;;;18.85;44.42
66486;BME280;53303;47.476;8.084;2024-02-14T11:33:16;95947.78;;;18.93;44.35
66486;BME280;53303;47.476;8.084;2024-02-14T11:35:49;95953.66;;;19.00;44.33
66486;BME280;53303;47.476;8.084;2024-02-14T11:38:24;95947.66;;;19.02;44.38
66486;BME280;53303;47.476;8.084;2024-02-14T11:40:56;95945.09;;;18.98;44.42
66486;BME280;53303;47.476;8.084;2024-02-14T11:43:24;95958.19;;;19.03;44.73
66486;BME280;53303;47.476;8.084;2024-02-14T11:45:50;95951.16;;;19.02;44.54
66486;BME280;53303;47.476;8.084;2024-02-14T11:48:20;95951.44;;;19.05;44.51
66486;BME280;53303;47.476;8.084;2024-02-14T11:50:46;95953.72;;;19.06;44.45
66486;BME280;53303;47.476;8.084;2024-02-14T11:53:15;95934.72;;;18.93;44.46
66486;BME280;53303;47.476;8.084;2024-02-14T11:55:44;95947.06;;;18.98;44.33
66486;BME280;53303;47.476;8.084;2024-02-14T11:58:13;95947.66;;;19.02;44.42
66486;BME280;53303;47.476;8.084;2024-02-14T12:00:40;95952.44;;;19.07;44.48
66486;BME280;53303;47.476;8.084;2024-02-14T12:03:12;95960.00;;;19.07;44.43
66486;BME280;53303;47.476;8.084;2024-02-14T12:05:38;95947.13;;;19.03;44.42
66486;BME280;53303;47.476;8.084;2024-02-14T12:08:07;95927.44;;;18.96;44.47
66486;BME280;53303;47.476;8.084;2024-02-14T12:10:35;95930.22;;;18.96;44.73
66486;BME280;53303;47.476;8.084;2024-02-14T12:13:13;95936.38;;;19.06;44.59
66486;BME280;53303;47.476;8.084;2024-02-14T12:15:40;95930.75;;;19.00;44.39
66486;BME280;53303;47.476;8.084;2024-02-14T12:18:08;95933.03;;;19.01;44.68
66486;BME280;53303;47.476;8.084;2024-02-14T12:20:35;95933.59;;;19.06;44.54
66486;BME280;53303;47.476;8.084;2024-02-14T12:23:02;95906.03;;;18.91;44.59
66486;BME280;53303;47.476;8.084;2024-02-14T12:25:28;95927.50;;;19.01;44.55
66486;BME280;53303;47.476;8.084;2024-02-14T12:27:56;95933.38;;;19.09;44.38
66486;BME280;53303;47.476;8.084;2024-02-14T12:30:22;95932.06;;;19.05;44.46
66486;BME280;53303;47.476;8.084;2024-02-14T12:33:00;95939.94;;;19.12;44.58
66486;BME280;53303;47.476;8.084;2024-02-14T12:35:28;95932.66;;;19.14;44.52
66486;BME280;53303;47.476;8.084;2024-02-14T12:37:58;95929.88;;;19.14;44.42
66486;BME280;53303;47.476;8.084;2024-02-14T12:40:26;95920.03;;;19.08;44.45
66486;BME280;53303;47.476;8.084;2024-02-14T12:42:52;95929.41;;;19.16;44.47
66486;BME280;53303;47.476;8.084;2024-02-14T12:45:17;95908.63;;;19.00;44.73
66486;BME280;53303;47.476;8.084;2024-02-14T12:47:42;95929.13;;;19.14;44.38
66486;BME280;53303;47.476;8.084;2024-02-14T12:50:10;95910.69;;;19.05;44.18
66486;BME280;53303;47.476;8.084;2024-02-14T12:52:38;95934.94;;;19.16;44.38
66486;BME280;53303;47.476;8.084;2024-02-14T12:55:03;95934.44;;;19.17;44.47
66486;BME280;53303;47.476;8.084;2024-02-14T12:57:29;95924.88;;;19.13;44.43
66486;BME280;53303;47.476;8.084;2024-02-14T12:59:57;95934.44;;;19.17;44.48
66486;BME280;53303;47.476;8.084;2024-02-14T13:02:22;95892.22;;;18.91;44.32
66486;BME280;53303;47.476;8.084;2024-02-14T13:04:47;95923.59;;;19.14;44.45